Airfield :
LOGIN :

Register | Disclaimer

   EN    FR    IT 

 










Legend :    VFR   Marginal VFR   IFR   Intensive IFR   Very Intensive IFR
Visi :
Ceiling :
>= 8 km
>= 3000ft
5 to 8 km
1000 to 3000 ft
1500m to 5 km
500 to 1000 ft
800 to 1500m
200 to 500 ft
< 800m
< 200 ft
Symbols :   Thunderstorms  Fog  Heavy snow  Heavy precipitations  Wind > 20 kt
SIGMETs :     Misc.  Thunderstorms  Icing  Turbulence  Mountain Waves  Volcanic Ashes






- Airport Elevation : 141 ft
- IATA code : SKS


EKSP - Srydstrup Vojens

CURRENT METAR :
  • 070250Z 15005KT 9999 FEW032 SCT070 07/06 Q1000

EXPIRED METARs :
  • 070220Z 16004KT 9999 FEW032 SCT070 08/06 Q1000
  • 070150Z 13004KT 9999 FEW032 SCT070 07/06 Q1000
  • 070120Z 14004KT 9999 FEW032 BKN070 08/07 Q1000
  • 070050Z 13005KT 9999 FEW032 SCT060 BKN070 08/07 Q1000
  • 070020Z 15005KT 9999 FEW032 SCT060 BKN080 09/07 Q1000

TAF TAF EKSP
Valid from the 07 at 03:00 until the 08 at 03:00 UTC


070208Z 0703/0803 17008KT 9999 SCT025 SCT050
TEMPO 0703/0710 -SHRA SCT030CB
TEMPO 0710/0719 4000 SHRA SCT012 BKN025CB
PROB40
TEMPO 0710/0714 TSRA
BECMG 0712/0714 VRB05KT
PROB40 0723/0803 0300 BCFG VV001



MET'MAP, your aeronautical weather chart ! - Copyright ORBIFLY December 2007 - Disclaimer

ORBIFLY MET'MAP TEAM :

Programming & Development : Alexandra Zaïnal
Concept & original design : Baudouin d'Aumeries
Assistance for programming : Marc-Olivier Méhu
Technical & hardware support : Manuel Goepfert

Contact : metmap@orbifly.com




SOURCES & CREDITS :

   NOAA